sensor_id;sensor_type;location;lat;lon;timestamp;temperature;humidity
57566;DHT22;43401;43.788;-0.712;2022-07-30T00:01:04;21.80;99.90
57566;DHT22;43401;43.788;-0.712;2022-07-30T00:03:30;21.90;99.90
57566;DHT22;43401;43.788;-0.712;2022-07-30T00:05:56;22.00;99.90
57566;DHT22;43401;43.788;-0.712;2022-07-30T00:08:22;21.80;99.90
57566;DHT22;43401;43.788;-0.712;2022-07-30T00:10:48;21.80;99.90
57566;DHT22;43401;43.788;-0.712;2022-07-30T00:13:14;21.80;99.90
57566;DHT22;43401;43.788;-0.712;2022-07-30T00:15:39;21.90;99.90
57566;DHT22;43401;43.788;-0.712;2022-07-30T00:18:05;21.90;99.90
57566;DHT22;43401;43.788;-0.712;2022-07-30T00:20:30;21.80;99.90
57566;DHT22;43401;43.788;-0.712;2022-07-30T00:22:56;21.80;99.90
57566;DHT22;43401;43.788;-0.712;2022-07-30T00:25:21;21.80;99.90
57566;DHT22;43401;43.788;-0.712;2022-07-30T00:27:47;21.80;99.90
57566;DHT22;43401;43.788;-0.712;2022-07-30T00:30:13;21.70;99.90
57566;DHT22;43401;43.788;-0.712;2022-07-30T00:32:38;21.60;99.90
57566;DHT22;43401;43.788;-0.712;2022-07-30T00:35:04;21.60;99.90
57566;DHT22;43401;43.788;-0.712;2022-07-30T00:37:30;21.70;99.90
57566;DHT22;43401;43.788;-0.712;2022-07-30T00:39:55;21.70;99.90
57566;DHT22;43401;43.788;-0.712;2022-07-30T00:42:21;21.70;99.90
57566;DHT22;43401;43.788;-0.712;2022-07-30T00:44:55;21.80;99.90
57566;DHT22;43401;43.788;-0.712;2022-07-30T00:47:21;21.60;99.90
57566;DHT22;43401;43.788;-0.712;2022-07-30T00:49:46;21.60;99.90
57566;DHT22;43401;43.788;-0.712;2022-07-30T00:52:12;21.50;99.90
57566;DHT22;43401;43.788;-0.712;2022-07-30T00:54:37;21.40;99.90
57566;DHT22;43401;43.788;-0.712;2022-07-30T00:57:03;21.50;99.90
57566;DHT22;43401;43.788;-0.712;2022-07-30T00:59:29;21.30;99.90
57566;DHT22;43401;43.788;-0.712;2022-07-30T01:01:55;21.40;99.90
57566;DHT22;43401;43.788;-0.712;2022-07-30T01:04:21;21.40;99.90
57566;DHT22;43401;43.788;-0.712;2022-07-30T01:06:47;21.40;99.90
57566;DHT22;43401;43.788;-0.712;2022-07-30T01:09:12;21.60;99.90
57566;DHT22;43401;43.788;-0.712;2022-07-30T01:11:38;21.50;99.90
57566;DHT22;43401;43.788;-0.712;2022-07-30T01:14:04;21.60;99.90
57566;DHT22;43401;43.788;-0.712;2022-07-30T01:16:32;21.70;99.90
57566;DHT22;43401;43.788;-0.712;2022-07-30T01:18:58;21.90;99.90
57566;DHT22;43401;43.788;-0.712;2022-07-30T01:21:45;21.80;99.90
57566;DHT22;43401;43.788;-0.712;2022-07-30T01:26:57;21.50;99.90
57566;DHT22;43401;43.788;-0.712;2022-07-30T01:29:23;21.70;99.90
57566;DHT22;43401;43.788;-0.712;2022-07-30T01:31:49;21.60;99.90
57566;DHT22;43401;43.788;-0.712;2022-07-30T01:34:17;21.60;99.90
57566;DHT22;43401;43.788;-0.712;2022-07-30T01:36:43;21.60;99.90
57566;DHT22;43401;43.788;-0.712;2022-07-30T01:39:09;21.70;99.90
57566;DHT22;43401;43.788;-0.712;2022-07-30T01:41:36;21.60;99.90
57566;DHT22;43401;43.788;-0.712;2022-07-30T01:44:02;21.60;99.90
57566;DHT22;43401;43.788;-0.712;2022-07-30T01:46:29;21.60;99.90
57566;DHT22;43401;43.788;-0.712;2022-07-30T01:48:55;21.70;99.90
57566;DHT22;43401;43.788;-0.712;2022-07-30T01:51:21;21.80;99.90
57566;DHT22;43401;43.788;-0.712;2022-07-30T01:53:48;21.80;99.90
57566;DHT22;43401;43.788;-0.712;2022-07-30T01:56:14;21.80;99.90
57566;DHT22;43401;43.788;-0.712;2022-07-30T01:58:40;21.70;99.90
57566;DHT22;43401;43.788;-0.712;2022-07-30T02:01:06;21.70;99.90
57566;DHT22;43401;43.788;-0.712;2022-07-30T02:03:32;21.50;99.90
57566;DHT22;43401;43.788;-0.712;2022-07-30T02:06:07;21.40;99.90
57566;DHT22;43401;43.788;-0.712;2022-07-30T02:08:43;21.50;99.90
57566;DHT22;43401;43.788;-0.712;2022-07-30T02:11:11;21.70;99.90
57566;DHT22;43401;43.788;-0.712;2022-07-30T02:13:40;21.60;99.90
57566;DHT22;43401;43.788;-0.712;2022-07-30T02:16:09;21.60;99.90
57566;DHT22;43401;43.788;-0.712;2022-07-30T02:18:42;21.60;99.90
57566;DHT22;43401;43.788;-0.712;2022-07-30T02:21:08;21.60;99.90
57566;DHT22;43401;43.788;-0.712;2022-07-30T02:23:35;21.60;99.90
57566;DHT22;43401;43.788;-0.712;2022-07-30T02:26:02;21.70;99.90
57566;DHT22;43401;43.788;-0.712;2022-07-30T02:28:29;21.60;99.90
57566;DHT22;43401;43.788;-0.712;2022-07-30T02:30:58;21.70;99.90
57566;DHT22;43401;43.788;-0.712;2022-07-30T02:33:35;21.70;99.90
57566;DHT22;43401;43.788;-0.712;2022-07-30T02:36:02;21.60;99.90
57566;DHT22;43401;43.788;-0.712;2022-07-30T02:38:27;21.60;99.90
57566;DHT22;43401;43.788;-0.712;2022-07-30T02:40:54;21.60;99.90
57566;DHT22;43401;43.788;-0.712;2022-07-30T02:43:22;21.40;99.90
57566;DHT22;43401;43.788;-0.712;2022-07-30T02:45:50;21.40;99.90
57566;DHT22;43401;43.788;-0.712;2022-07-30T02:48:16;21.30;99.90
57566;DHT22;43401;43.788;-0.712;2022-07-30T02:50:43;21.40;99.90
57566;DHT22;43401;43.788;-0.712;2022-07-30T02:53:09;21.40;99.90
57566;DHT22;43401;43.788;-0.712;2022-07-30T02:55:37;21.40;99.90
57566;DHT22;43401;43.788;-0.712;2022-07-30T02:58:03;21.30;99.90
57566;DHT22;43401;43.788;-0.712;2022-07-30T03:00:30;21.40;99.90
57566;DHT22;43401;43.788;-0.712;2022-07-30T03:02:56;21.40;99.90
57566;DHT22;43401;43.788;-0.712;2022-07-30T03:05:22;21.40;99.90
57566;DHT22;43401;43.788;-0.712;2022-07-30T03:07:48;21.40;99.90
57566;DHT22;43401;43.788;-0.712;2022-07-30T03:10:14;21.40;99.90
57566;DHT22;43401;43.788;-0.712;2022-07-30T03:12:40;21.50;99.90
57566;DHT22;43401;43.788;-0.712;2022-07-30T03:15:08;21.40;99.90
57566;DHT22;43401;43.788;-0.712;2022-07-30T03:17:36;21.30;99.90
57566;DHT22;43401;43.788;-0.712;2022-07-30T03:20:03;21.40;99.90
57566;DHT22;43401;43.788;-0.712;2022-07-30T03:22:29;21.30;99.90
57566;DHT22;43401;43.788;-0.712;2022-07-30T03:24:56;21.30;99.90
57566;DHT22;43401;43.788;-0.712;2022-07-30T03:27:22;21.30;99.90
57566;DHT22;43401;43.788;-0.712;2022-07-30T03:29:49;21.30;99.90
57566;DHT22;43401;43.788;-0.712;2022-07-30T03:32:16;21.20;99.90
57566;DHT22;43401;43.788;-0.712;2022-07-30T03:34:42;21.20;99.90
57566;DHT22;43401;43.788;-0.712;2022-07-30T03:37:08;21.20;99.90
57566;DHT22;43401;43.788;-0.712;2022-07-30T03:39:34;21.20;99.90
57566;DHT22;43401;43.788;-0.712;2022-07-30T03:42:00;21.30;99.90
57566;DHT22;43401;43.788;-0.712;2022-07-30T03:44:26;21.30;99.90
57566;DHT22;43401;43.788;-0.712;2022-07-30T03:46:52;21.20;99.90
57566;DHT22;43401;43.788;-0.712;2022-07-30T03:49:20;21.20;99.90
57566;DHT22;43401;43.788;-0.712;2022-07-30T03:51:46;21.20;99.90
57566;DHT22;43401;43.788;-0.712;2022-07-30T03:54:12;21.10;99.90
57566;DHT22;43401;43.788;-0.712;2022-07-30T03:56:38;21.10;99.90
57566;DHT22;43401;43.788;-0.712;2022-07-30T03:59:04;21.10;99.90
57566;DHT22;43401;43.788;-0.712;2022-07-30T04:01:29;21.10;99.90
57566;DHT22;43401;43.788;-0.712;2022-07-30T04:04:02;20.80;99.90
57566;DHT22;43401;43.788;-0.712;2022-07-30T04:06:27;20.80;99.90
57566;DHT22;43401;43.788;-0.712;2022-07-30T04:08:53;20.80;99.90
57566;DHT22;43401;43.788;-0.712;2022-07-30T04:11:18;20.80;99.90
57566;DHT22;43401;43.788;-0.712;2022-07-30T04:13:44;20.80;99.90
57566;DHT22;43401;43.788;-0.712;2022-07-30T04:16:13;20.60;99.90
57566;DHT22;43401;43.788;-0.712;2022-07-30T04:18:41;20.30;99.90
57566;DHT22;43401;43.788;-0.712;2022-07-30T04:21:09;20.50;99.90
57566;DHT22;43401;43.788;-0.712;2022-07-30T04:23:36;20.50;99.90
57566;DHT22;43401;43.788;-0.712;2022-07-30T04:26:02;20.50;99.90
57566;DHT22;43401;43.788;-0.712;2022-07-30T04:28:28;20.60;99.90
57566;DHT22;43401;43.788;-0.712;2022-07-30T04:30:53;20.50;99.90
57566;DHT22;43401;43.788;-0.712;2022-07-30T04:33:19;20.60;99.90
57566;DHT22;43401;43.788;-0.712;2022-07-30T04:35:45;20.80;99.90
57566;DHT22;43401;43.788;-0.712;2022-07-30T04:38:10;20.80;99.90
57566;DHT22;43401;43.788;-0.712;2022-07-30T04:40:38;20.70;99.90
57566;DHT22;43401;43.788;-0.712;2022-07-30T04:43:04;20.60;99.90
57566;DHT22;43401;43.788;-0.712;2022-07-30T04:45:29;20.60;99.90
57566;DHT22;43401;43.788;-0.712;2022-07-30T04:47:55;20.60;99.90
57566;DHT22;43401;43.788;-0.712;2022-07-30T04:50:21;20.60;99.90
57566;DHT22;43401;43.788;-0.712;2022-07-30T04:52:49;20.40;99.90
57566;DHT22;43401;43.788;-0.712;2022-07-30T04:55:15;20.70;99.90
57566;DHT22;43401;43.788;-0.712;2022-07-30T04:57:40;20.70;99.90
57566;DHT22;43401;43.788;-0.712;2022-07-30T05:00:07;20.70;99.90
57566;DHT22;43401;43.788;-0.712;2022-07-30T05:02:34;20.70;99.90
57566;DHT22;43401;43.788;-0.712;2022-07-30T05:05:02;20.70;99.90
57566;DHT22;43401;43.788;-0.712;2022-07-30T05:07:27;20.60;99.90
57566;DHT22;43401;43.788;-0.712;2022-07-30T05:09:54;20.70;99.90
57566;DHT22;43401;43.788;-0.712;2022-07-30T05:12:19;20.60;99.90
57566;DHT22;43401;43.788;-0.712;2022-07-30T05:14:45;20.40;99.90
57566;DHT22;43401;43.788;-0.712;2022-07-30T05:17:11;20.30;99.90
57566;DHT22;43401;43.788;-0.712;2022-07-30T05:19:36;20.30;99.90
57566;DHT22;43401;43.788;-0.712;2022-07-30T05:22:02;20.60;99.90
57566;DHT22;43401;43.788;-0.712;2022-07-30T05:24:27;20.70;99.90
57566;DHT22;43401;43.788;-0.712;2022-07-30T05:26:53;20.70;99.90
57566;DHT22;43401;43.788;-0.712;2022-07-30T05:29:18;20.50;99.90
57566;DHT22;43401;43.788;-0.712;2022-07-30T05:31:44;20.30;99.90
57566;DHT22;43401;43.788;-0.712;2022-07-30T05:34:09;20.60;99.90
57566;DHT22;43401;43.788;-0.712;2022-07-30T05:36:35;20.70;99.90
57566;DHT22;43401;43.788;-0.712;2022-07-30T05:39:01;20.70;99.90
57566;DHT22;43401;43.788;-0.712;2022-07-30T05:41:26;20.60;99.90
57566;DHT22;43401;43.788;-0.712;2022-07-30T05:43:52;20.60;99.90
57566;DHT22;43401;43.788;-0.712;2022-07-30T05:46:17;20.60;99.90
57566;DHT22;43401;43.788;-0.712;2022-07-30T05:48:43;20.60;99.90
57566;DHT22;43401;43.788;-0.712;2022-07-30T05:51:09;20.60;99.90
57566;DHT22;43401;43.788;-0.712;2022-07-30T05:53:34;20.60;99.90
57566;DHT22;43401;43.788;-0.712;2022-07-30T05:56:00;20.70;99.90
57566;DHT22;43401;43.788;-0.712;2022-07-30T05:58:25;20.80;99.90
57566;DHT22;43401;43.788;-0.712;2022-07-30T06:00:51;20.80;99.90
57566;DHT22;43401;43.788;-0.712;2022-07-30T06:03:17;20.90;99.90
57566;DHT22;43401;43.788;-0.712;2022-07-30T06:05:42;20.90;99.90
57566;DHT22;43401;43.788;-0.712;2022-07-30T06:08:08;20.80;99.90
57566;DHT22;43401;43.788;-0.712;2022-07-30T06:10:34;20.90;99.90
57566;DHT22;43401;43.788;-0.712;2022-07-30T06:12:59;21.00;99.90
57566;DHT22;43401;43.788;-0.712;2022-07-30T06:15:25;21.10;99.90
57566;DHT22;43401;43.788;-0.712;2022-07-30T06:17:51;21.10;99.90
57566;DHT22;43401;43.788;-0.712;2022-07-30T06:20:17;21.00;99.90
57566;DHT22;43401;43.788;-0.712;2022-07-30T06:22:43;21.10;99.90
57566;DHT22;43401;43.788;-0.712;2022-07-30T06:25:09;21.20;99.90
57566;DHT22;43401;43.788;-0.712;2022-07-30T06:27:35;21.30;99.90
57566;DHT22;43401;43.788;-0.712;2022-07-30T06:30:05;21.20;99.90
57566;DHT22;43401;43.788;-0.712;2022-07-30T06:32:31;21.30;99.90
57566;DHT22;43401;43.788;-0.712;2022-07-30T06:34:57;21.40;99.90
57566;DHT22;43401;43.788;-0.712;2022-07-30T06:37:22;21.20;99.90
57566;DHT22;43401;43.788;-0.712;2022-07-30T06:39:48;21.30;99.90
57566;DHT22;43401;43.788;-0.712;2022-07-30T06:42:13;21.40;99.90
57566;DHT22;43401;43.788;-0.712;2022-07-30T06:44:39;21.40;99.90
57566;DHT22;43401;43.788;-0.712;2022-07-30T06:47:05;21.30;99.90
57566;DHT22;43401;43.788;-0.712;2022-07-30T06:49:31;21.20;99.90
57566;DHT22;43401;43.788;-0.712;2022-07-30T06:51:57;21.10;99.90
57566;DHT22;43401;43.788;-0.712;2022-07-30T06:54:22;21.20;99.90
57566;DHT22;43401;43.788;-0.712;2022-07-30T06:56:48;21.40;99.90
57566;DHT22;43401;43.788;-0.712;2022-07-30T06:59:14;21.50;99.90
57566;DHT22;43401;43.788;-0.712;2022-07-30T07:01:39;21.40;99.90
57566;DHT22;43401;43.788;-0.712;2022-07-30T07:04:05;21.40;99.90
57566;DHT22;43401;43.788;-0.712;2022-07-30T07:06:31;21.40;99.90
57566;DHT22;43401;43.788;-0.712;2022-07-30T07:08:57;21.30;99.90
57566;DHT22;43401;43.788;-0.712;2022-07-30T07:11:22;21.30;99.90
57566;DHT22;43401;43.788;-0.712;2022-07-30T07:13:48;21.50;99.90
57566;DHT22;43401;43.788;-0.712;2022-07-30T07:16:13;21.50;99.90
57566;DHT22;43401;43.788;-0.712;2022-07-30T07:18:39;21.70;99.90
57566;DHT22;43401;43.788;-0.712;2022-07-30T07:21:05;22.00;99.90
57566;DHT22;43401;43.788;-0.712;2022-07-30T07:23:32;21.90;99.90
57566;DHT22;43401;43.788;-0.712;2022-07-30T07:25:57;22.10;99.90
57566;DHT22;43401;43.788;-0.712;2022-07-30T07:28:23;22.10;99.90
57566;DHT22;43401;43.788;-0.712;2022-07-30T07:30:49;22.20;99.90
57566;DHT22;43401;43.788;-0.712;2022-07-30T07:33:14;22.20;99.90
57566;DHT22;43401;43.788;-0.712;2022-07-30T07:35:40;22.20;99.90
57566;DHT22;43401;43.788;-0.712;2022-07-30T07:38:05;22.20;99.90
57566;DHT22;43401;43.788;-0.712;2022-07-30T07:40:31;21.90;99.90
57566;DHT22;43401;43.788;-0.712;2022-07-30T07:42:56;21.90;99.90
57566;DHT22;43401;43.788;-0.712;2022-07-30T07:45:22;22.00;99.90
57566;DHT22;43401;43.788;-0.712;2022-07-30T07:47:48;22.10;99.90
57566;DHT22;43401;43.788;-0.712;2022-07-30T07:50:15;22.20;99.90
57566;DHT22;43401;43.788;-0.712;2022-07-30T07:52:41;22.30;99.90
57566;DHT22;43401;43.788;-0.712;2022-07-30T07:55:07;22.20;99.90
57566;DHT22;43401;43.788;-0.712;2022-07-30T07:57:42;22.30;99.90
57566;DHT22;43401;43.788;-0.712;2022-07-30T08:00:09;22.40;99.90
57566;DHT22;43401;43.788;-0.712;2022-07-30T08:02:35;22.50;99.90
57566;DHT22;43401;43.788;-0.712;2022-07-30T08:05:01;22.60;99.90
57566;DHT22;43401;43.788;-0.712;2022-07-30T08:07:28;22.70;99.90
57566;DHT22;43401;43.788;-0.712;2022-07-30T08:09:54;22.70;99.90
57566;DHT22;43401;43.788;-0.712;2022-07-30T08:12:20;22.70;99.90
57566;DHT22;43401;43.788;-0.712;2022-07-30T08:14:46;22.60;99.90
57566;DHT22;43401;43.788;-0.712;2022-07-30T08:17:11;22.70;99.90
57566;DHT22;43401;43.788;-0.712;2022-07-30T08:19:37;22.70;99.90
57566;DHT22;43401;43.788;-0.712;2022-07-30T08:22:02;22.80;99.90
57566;DHT22;43401;43.788;-0.712;2022-07-30T08:24:28;23.00;99.90
57566;DHT22;43401;43.788;-0.712;2022-07-30T08:26:53;22.70;99.90
57566;DHT22;43401;43.788;-0.712;2022-07-30T08:29:19;23.00;99.90
57566;DHT22;43401;43.788;-0.712;2022-07-30T08:31:44;23.20;99.90
57566;DHT22;43401;43.788;-0.712;2022-07-30T08:34:10;23.20;99.90
57566;DHT22;43401;43.788;-0.712;2022-07-30T08:36:37;23.50;99.90
57566;DHT22;43401;43.788;-0.712;2022-07-30T08:39:02;23.30;99.90
57566;DHT22;43401;43.788;-0.712;2022-07-30T08:41:29;22.70;99.90
57566;DHT22;43401;43.788;-0.712;2022-07-30T08:43:55;22.90;99.90
57566;DHT22;43401;43.788;-0.712;2022-07-30T08:46:24;23.00;99.90
57566;DHT22;43401;43.788;-0.712;2022-07-30T08:48:51;23.00;99.90
57566;DHT22;43401;43.788;-0.712;2022-07-30T08:51:18;23.10;99.90
57566;DHT22;43401;43.788;-0.712;2022-07-30T08:53:44;23.30;99.90
57566;DHT22;43401;43.788;-0.712;2022-07-30T08:56:11;23.50;99.90
57566;DHT22;43401;43.788;-0.712;2022-07-30T08:58:37;23.60;99.90
57566;DHT22;43401;43.788;-0.712;2022-07-30T09:01:03;23.90;99.90
57566;DHT22;43401;43.788;-0.712;2022-07-30T09:03:29;23.80;99.90
57566;DHT22;43401;43.788;-0.712;2022-07-30T09:05:55;23.60;99.90
57566;DHT22;43401;43.788;-0.712;2022-07-30T09:08:20;23.90;99.90
57566;DHT22;43401;43.788;-0.712;2022-07-30T09:10:46;23.90;99.90
57566;DHT22;43401;43.788;-0.712;2022-07-30T09:13:25;23.70;99.90
57566;DHT22;43401;43.788;-0.712;2022-07-30T09:15:51;23.80;99.90
57566;DHT22;43401;43.788;-0.712;2022-07-30T09:20:58;23.80;99.90
57566;DHT22;43401;43.788;-0.712;2022-07-30T09:23:24;24.30;99.90
57566;DHT22;43401;43.788;-0.712;2022-07-30T09:25:50;24.40;99.90
57566;DHT22;43401;43.788;-0.712;2022-07-30T09:28:16;24.70;99.90
57566;DHT22;43401;43.788;-0.712;2022-07-30T09:30:52;24.50;99.90
57566;DHT22;43401;43.788;-0.712;2022-07-30T09:33:37;24.40;99.90
57566;DHT22;43401;43.788;-0.712;2022-07-30T09:36:04;24.10;99.90
57566;DHT22;43401;43.788;-0.712;2022-07-30T09:38:41;24.40;99.90
57566;DHT22;43401;43.788;-0.712;2022-07-30T09:41:07;24.50;99.90
57566;DHT22;43401;43.788;-0.712;2022-07-30T09:43:40;24.70;99.90
57566;DHT22;43401;43.788;-0.712;2022-07-30T09:46:05;24.60;99.90
57566;DHT22;43401;43.788;-0.712;2022-07-30T09:48:31;24.60;99.90
57566;DHT22;43401;43.788;-0.712;2022-07-30T09:50:56;24.70;99.90
57566;DHT22;43401;43.788;-0.712;2022-07-30T09:53:22;24.80;99.90
57566;DHT22;43401;43.788;-0.712;2022-07-30T09:55:48;24.80;99.90
57566;DHT22;43401;43.788;-0.712;2022-07-30T09:58:13;24.80;99.90
57566;DHT22;43401;43.788;-0.712;2022-07-30T10:00:39;24.80;99.90
57566;DHT22;43401;43.788;-0.712;2022-07-30T10:03:21;24.70;99.90
57566;DHT22;43401;43.788;-0.712;2022-07-30T10:05:58;24.80;99.90
57566;DHT22;43401;43.788;-0.712;2022-07-30T10:08:43;24.70;99.90
57566;DHT22;43401;43.788;-0.712;2022-07-30T10:11:13;24.70;99.90
57566;DHT22;43401;43.788;-0.712;2022-07-30T10:13:39;24.70;99.90
57566;DHT22;43401;43.788;-0.712;2022-07-30T10:16:05;24.80;99.90
57566;DHT22;43401;43.788;-0.712;2022-07-30T10:18:31;24.80;99.90
57566;DHT22;43401;43.788;-0.712;2022-07-30T10:20:57;24.90;99.90
57566;DHT22;43401;43.788;-0.712;2022-07-30T10:23:26;25.10;99.90
57566;DHT22;43401;43.788;-0.712;2022-07-30T10:25:58;25.20;99.90
57566;DHT22;43401;43.788;-0.712;2022-07-30T10:28:24;25.10;99.90
57566;DHT22;43401;43.788;-0.712;2022-07-30T10:30:51;25.10;99.90
57566;DHT22;43401;43.788;-0.712;2022-07-30T10:33:17;25.30;99.90
57566;DHT22;43401;43.788;-0.712;2022-07-30T10:35:42;25.30;99.90
57566;DHT22;43401;43.788;-0.712;2022-07-30T10:38:09;25.60;99.90
57566;DHT22;43401;43.788;-0.712;2022-07-30T10:40:36;25.50;99.90
57566;DHT22;43401;43.788;-0.712;2022-07-30T10:48:37;25.70;99.90
57566;DHT22;43401;43.788;-0.712;2022-07-30T10:51:03;25.90;99.90
57566;DHT22;43401;43.788;-0.712;2022-07-30T10:56:09;25.80;99.90
57566;DHT22;43401;43.788;-0.712;2022-07-30T11:01:20;26.10;99.90
57566;DHT22;43401;43.788;-0.712;2022-07-30T11:03:50;26.40;99.90
57566;DHT22;43401;43.788;-0.712;2022-07-30T11:06:31;26.20;99.90
57566;DHT22;43401;43.788;-0.712;2022-07-30T11:08:56;26.40;99.90
57566;DHT22;43401;43.788;-0.712;2022-07-30T11:13:51;26.50;99.90
57566;DHT22;43401;43.788;-0.712;2022-07-30T11:16:21;26.40;99.90
57566;DHT22;43401;43.788;-0.712;2022-07-30T11:19:04;26.50;99.90
57566;DHT22;43401;43.788;-0.712;2022-07-30T11:21:30;26.50;99.90
57566;DHT22;43401;43.788;-0.712;2022-07-30T11:23:56;26.50;99.90
57566;DHT22;43401;43.788;-0.712;2022-07-30T11:29:03;26.80;99.90
57566;DHT22;43401;43.788;-0.712;2022-07-30T11:31:33;26.80;99.90
57566;DHT22;43401;43.788;-0.712;2022-07-30T11:37:01;26.90;99.90
57566;DHT22;43401;43.788;-0.712;2022-07-30T11:42:25;27.20;99.90
57566;DHT22;43401;43.788;-0.712;2022-07-30T11:44:50;27.20;99.90
57566;DHT22;43401;43.788;-0.712;2022-07-30T11:47:16;27.30;99.90
57566;DHT22;43401;43.788;-0.712;2022-07-30T11:49:44;27.20;99.90
57566;DHT22;43401;43.788;-0.712;2022-07-30T11:52:09;27.30;99.90
57566;DHT22;43401;43.788;-0.712;2022-07-30T11:54:51;27.40;99.90
57566;DHT22;43401;43.788;-0.712;2022-07-30T11:57:17;27.50;99.90
57566;DHT22;43401;43.788;-0.712;2022-07-30T11:59:53;27.70;99.90
57566;DHT22;43401;43.788;-0.712;2022-07-30T12:02:22;27.70;99.90
57566;DHT22;43401;43.788;-0.712;2022-07-30T12:04:50;27.60;99.90
57566;DHT22;43401;43.788;-0.712;2022-07-30T12:07:20;27.60;99.90
57566;DHT22;43401;43.788;-0.712;2022-07-30T12:09:46;27.70;99.90
57566;DHT22;43401;43.788;-0.712;2022-07-30T12:12:20;27.60;99.90
57566;DHT22;43401;43.788;-0.712;2022-07-30T12:14:49;27.60;99.90
57566;DHT22;43401;43.788;-0.712;2022-07-30T12:17:15;27.20;99.90
57566;DHT22;43401;43.788;-0.712;2022-07-30T12:19:46;27.40;99.90
57566;DHT22;43401;43.788;-0.712;2022-07-30T12:22:12;27.30;99.90
57566;DHT22;43401;43.788;-0.712;2022-07-30T12:24:38;27.10;99.90
57566;DHT22;43401;43.788;-0.712;2022-07-30T12:27:04;27.20;99.90
57566;DHT22;43401;43.788;-0.712;2022-07-30T12:29:30;27.50;99.90
57566;DHT22;43401;43.788;-0.712;2022-07-30T12:31:56;27.50;99.90
57566;DHT22;43401;43.788;-0.712;2022-07-30T12:34:23;27.30;99.90
57566;DHT22;43401;43.788;-0.712;2022-07-30T12:36:48;26.90;99.90
57566;DHT22;43401;43.788;-0.712;2022-07-30T12:39:24;27.10;99.90
57566;DHT22;43401;43.788;-0.712;2022-07-30T12:41:51;27.10;99.90
57566;DHT22;43401;43.788;-0.712;2022-07-30T12:47:18;27.20;99.90
57566;DHT22;43401;43.788;-0.712;2022-07-30T12:49:44;27.50;99.90
57566;DHT22;43401;43.788;-0.712;2022-07-30T12:52:18;27.60;99.90
57566;DHT22;43401;43.788;-0.712;2022-07-30T12:54:44;27.40;99.90
57566;DHT22;43401;43.788;-0.712;2022-07-30T12:57:09;27.70;99.90
57566;DHT22;43401;43.788;-0.712;2022-07-30T12:59:35;27.70;99.90
57566;DHT22;43401;43.788;-0.712;2022-07-30T13:02:02;27.70;99.90
57566;DHT22;43401;43.788;-0.712;2022-07-30T13:04:28;27.80;99.90
57566;DHT22;43401;43.788;-0.712;2022-07-30T13:07:04;28.10;99.90
57566;DHT22;43401;43.788;-0.712;2022-07-30T13:09:29;27.80;99.80
57566;DHT22;43401;43.788;-0.712;2022-07-30T13:11:55;27.70;99.00
57566;DHT22;43401;43.788;-0.712;2022-07-30T13:14:20;27.50;99.30
57566;DHT22;43401;43.788;-0.712;2022-07-30T13:16:46;27.80;99.90
57566;DHT22;43401;43.788;-0.712;2022-07-30T13:19:11;27.90;99.30
57566;DHT22;43401;43.788;-0.712;2022-07-30T13:21:38;28.30;99.40
57566;DHT22;43401;43.788;-0.712;2022-07-30T13:24:04;27.70;98.40
57566;DHT22;43401;43.788;-0.712;2022-07-30T13:26:29;27.90;99.70
57566;DHT22;43401;43.788;-0.712;2022-07-30T13:28:56;27.80;99.90
57566;DHT22;43401;43.788;-0.712;2022-07-30T13:31:21;28.10;99.50
57566;DHT22;43401;43.788;-0.712;2022-07-30T13:33:47;28.00;99.50
57566;DHT22;43401;43.788;-0.712;2022-07-30T13:36:14;28.10;98.50
57566;DHT22;43401;43.788;-0.712;2022-07-30T13:38:39;28.10;99.40
57566;DHT22;43401;43.788;-0.712;2022-07-30T13:41:05;28.00;99.30
57566;DHT22;43401;43.788;-0.712;2022-07-30T13:43:31;28.10;98.70
57566;DHT22;43401;43.788;-0.712;2022-07-30T13:45:57;28.10;99.40
57566;DHT22;43401;43.788;-0.712;2022-07-30T13:48:22;28.00;99.70
57566;DHT22;43401;43.788;-0.712;2022-07-30T13:50:48;28.10;98.90
57566;DHT22;43401;43.788;-0.712;2022-07-30T13:53:14;28.00;99.90
57566;DHT22;43401;43.788;-0.712;2022-07-30T13:55:39;28.20;99.60
57566;DHT22;43401;43.788;-0.712;2022-07-30T13:58:06;28.30;99.30
57566;DHT22;43401;43.788;-0.712;2022-07-30T14:00:32;28.10;99.90
57566;DHT22;43401;43.788;-0.712;2022-07-30T14:02:59;28.20;99.90
57566;DHT22;43401;43.788;-0.712;2022-07-30T14:05:25;28.20;99.50
57566;DHT22;43401;43.788;-0.712;2022-07-30T14:07:50;28.30;98.40
57566;DHT22;43401;43.788;-0.712;2022-07-30T14:10:16;28.40;99.00
57566;DHT22;43401;43.788;-0.712;2022-07-30T14:12:42;28.50;98.40
57566;DHT22;43401;43.788;-0.712;2022-07-30T14:15:07;28.60;99.00
57566;DHT22;43401;43.788;-0.712;2022-07-30T14:17:34;28.60;98.40
57566;DHT22;43401;43.788;-0.712;2022-07-30T14:19:59;28.50;98.40
57566;DHT22;43401;43.788;-0.712;2022-07-30T14:22:25;28.50;99.00
57566;DHT22;43401;43.788;-0.712;2022-07-30T14:24:50;28.40;99.40
57566;DHT22;43401;43.788;-0.712;2022-07-30T14:27:16;28.40;98.80
57566;DHT22;43401;43.788;-0.712;2022-07-30T14:29:45;28.20;98.80
57566;DHT22;43401;43.788;-0.712;2022-07-30T14:32:10;28.40;99.40
57566;DHT22;43401;43.788;-0.712;2022-07-30T14:34:36;28.40;98.90
57566;DHT22;43401;43.788;-0.712;2022-07-30T14:37:01;27.90;99.20
57566;DHT22;43401;43.788;-0.712;2022-07-30T14:39:27;28.00;99.10
57566;DHT22;43401;43.788;-0.712;2022-07-30T14:41:54;27.80;99.00
57566;DHT22;43401;43.788;-0.712;2022-07-30T14:44:20;27.50;99.30
57566;DHT22;43401;43.788;-0.712;2022-07-30T14:46:46;27.60;99.00
57566;DHT22;43401;43.788;-0.712;2022-07-30T14:49:11;27.70;99.40
57566;DHT22;43401;43.788;-0.712;2022-07-30T14:51:37;27.70;99.20
57566;DHT22;43401;43.788;-0.712;2022-07-30T14:54:03;27.70;99.30
57566;DHT22;43401;43.788;-0.712;2022-07-30T14:56:28;27.80;99.00
57566;DHT22;43401;43.788;-0.712;2022-07-30T14:58:54;27.90;99.10
57566;DHT22;43401;43.788;-0.712;2022-07-30T15:01:19;27.70;99.20
57566;DHT22;43401;43.788;-0.712;2022-07-30T15:03:45;27.70;99.70
57566;DHT22;43401;43.788;-0.712;2022-07-30T15:06:11;27.70;99.40
57566;DHT22;43401;43.788;-0.712;2022-07-30T15:08:39;27.90;99.70
57566;DHT22;43401;43.788;-0.712;2022-07-30T15:11:05;28.00;99.80
57566;DHT22;43401;43.788;-0.712;2022-07-30T15:13:30;28.10;99.10
57566;DHT22;43401;43.788;-0.712;2022-07-30T15:15:56;28.20;99.00
57566;DHT22;43401;43.788;-0.712;2022-07-30T15:18:21;28.10;99.50
57566;DHT22;43401;43.788;-0.712;2022-07-30T15:20:47;28.20;99.70
57566;DHT22;43401;43.788;-0.712;2022-07-30T15:23:13;28.10;99.50
57566;DHT22;43401;43.788;-0.712;2022-07-30T15:25:39;28.10;99.00
57566;DHT22;43401;43.788;-0.712;2022-07-30T15:28:04;28.10;99.50
57566;DHT22;43401;43.788;-0.712;2022-07-30T15:30:30;28.10;99.10
57566;DHT22;43401;43.788;-0.712;2022-07-30T15:32:55;28.10;98.50
57566;DHT22;43401;43.788;-0.712;2022-07-30T15:35:21;28.20;98.50
57566;DHT22;43401;43.788;-0.712;2022-07-30T15:37:47;28.20;99.20
57566;DHT22;43401;43.788;-0.712;2022-07-30T15:40:12;28.50;98.20
57566;DHT22;43401;43.788;-0.712;2022-07-30T15:42:38;28.50;98.60